Time;durP1;ratioP1;P1;durP2;ratioP2;P2;SDS_P1;SDS_P2;PMS_P1;PMS_P2;Temp;Humidity;BMP_temperature;BMP_pressure;BME280_temperature;BME280_humidity;BME280_pressure;Samples;Min_cycle;Max_cycle;Signal;HPM_P1;HPM_P2
2022/10/18 00:00:02;;;;;;;17.57;15.50;;;;;;;;;;5092526;28;20547;-51
2022/10/18 00:02:29;;;;;;;16.37;14.77;;;;;;;;;;5092568;28;20949;-51
2022/10/18 00:04:56;;;;;;;18.00;15.40;;;;;;;;;;5092608;28;20534;-55
2022/10/18 00:07:23;;;;;;;21.40;17.60;;;;;;;;;;5092737;28;20446;-54
2022/10/18 00:09:50;;;;;;;17.77;15.87;;;;;;;;;;5092930;28;20446;-50
2022/10/18 00:12:16;;;;;;;18.20;16.30;;;;;;;;;;5092617;28;20537;-51
2022/10/18 00:14:45;;;;;;;19.50;16.90;;;;;;;;;;5092477;28;20474;-55
2022/10/18 00:17:12;;;;;;;19.27;16.67;;;;;;;;;;5092386;28;20450;-55
2022/10/18 00:19:38;;;;;;;18.53;16.53;;;;;;;;;;5092669;28;20546;-55
2022/10/18 00:22:05;;;;;;;17.67;15.80;;;;;;;;;;5092615;28;20813;-55
2022/10/18 00:24:32;;;;;;;16.37;14.67;;;;;;;;;;5092516;28;20453;-55
2022/10/18 00:26:59;;;;;;;20.70;16.83;;;;;;;;;;5092369;28;20453;-54
2022/10/18 00:29:26;;;;;;;18.92;15.40;;;;;;;;;;5092401;28;20521;-52
2022/10/18 00:31:54;;;;;;;19.13;17.10;;;;;;;;;;5094048;28;20189;-55
2022/10/18 00:34:21;;;;;;;17.50;15.70;;;;;;;;;;5096169;28;20446;-57
2022/10/18 00:36:48;;;;;;;18.70;16.80;;;;;;;;;;5096287;28;20825;-52
2022/10/18 00:39:16;;;;;;;16.73;15.05;;;;;;;;;;5095979;28;20442;-52
2022/10/18 00:41:43;;;;;;;16.60;14.50;;;;;;;;;;5095877;28;20192;-52
2022/10/18 00:44:25;;;;;;;16.40;14.63;;;;;;;;;;5096003;28;20482;-50
2022/10/18 00:46:52;;;;;;;21.93;15.13;;;;;;;;;;5094969;28;20860;-50
2022/10/18 00:49:22;;;;;;;16.73;14.97;;;;;;;;;;5095694;28;20473;-52
2022/10/18 00:51:50;;;;;;;18.20;16.40;;;;;;;;;;5095730;28;20449;-54
2022/10/18 00:54:18;;;;;;;18.00;16.20;;;;;;;;;;5095664;28;20446;-51
2022/10/18 00:56:45;;;;;;;17.27;15.57;;;;;;;;;;5095331;28;20515;-53
2022/10/18 00:59:12;;;;;;;17.90;16.00;;;;;;;;;;5095760;28;20569;-52
2022/10/18 01:01:39;;;;;;;18.90;17.00;;;;;;;;;;5095585;28;20517;-51
2022/10/18 01:04:06;;;;;;;19.45;16.30;;;;;;;;;;5095495;28;20447;-52
2022/10/18 01:06:42;;;;;;;18.43;16.63;;;;;;;;;;5095380;28;20552;-54
2022/10/18 01:09:12;;;;;;;21.88;17.08;;;;;;;;;;5095576;28;20541;-54
2022/10/18 01:11:54;;;;;;;17.03;15.30;;;;;;;;;;5095513;28;20181;-54
2022/10/18 01:14:27;;;;;;;16.83;14.77;;;;;;;;;;5092255;28;20486;-53
2022/10/18 01:16:56;;;;;;;17.70;15.80;;;;;;;;;;5095197;28;20527;-50
2022/10/18 01:19:42;;;;;;;16.90;15.03;;;;;;;;;;5095157;28;20484;-53
2022/10/18 01:22:14;;;;;;;16.38;14.77;;;;;;;;;;5095338;28;20499;-55
2022/10/18 01:24:51;;;;;;;17.07;15.07;;;;;;;;;;5095373;28;20354;-52
2022/10/18 01:27:25;;;;;;;17.10;14.87;;;;;;;;;;5095060;28;20533;-52
2022/10/18 01:29:56;;;;;;;16.10;14.43;;;;;;;;;;5095030;28;20541;-53
2022/10/18 01:32:27;;;;;;;16.40;14.70;;;;;;;;;;5094894;28;20459;-54
2022/10/18 01:34:58;;;;;;;15.57;14.00;;;;;;;;;;5095002;28;20941;-51
2022/10/18 01:37:25;;;;;;;16.43;12.47;;;;;;;;;;5094875;28;20450;-53
2022/10/18 01:39:55;;;;;;;12.30;11.20;;;;;;;;;;5094755;28;20457;-52
2022/10/18 01:42:22;;;;;;;12.67;11.47;;;;;;;;;;5094443;28;20541;-52
2022/10/18 01:44:51;;;;;;;12.60;11.43;;;;;;;;;;5094129;28;20453;-53
2022/10/18 01:47:18;;;;;;;11.43;10.23;;;;;;;;;;5094496;28;21306;-53
2022/10/18 01:49:47;;;;;;;12.07;10.80;;;;;;;;;;5094967;28;20450;-54
2022/10/18 01:52:14;;;;;;;11.97;10.83;;;;;;;;;;5094589;28;20450;-56
2022/10/18 01:54:43;;;;;;;11.10;10.00;;;;;;;;;;5094509;28;20864;-56
2022/10/18 01:57:12;;;;;;;11.10;10.10;;;;;;;;;;5094135;28;20480;-54
2022/10/18 01:59:47;;;;;;;12.80;11.60;;;;;;;;;;5094538;28;20443;-55
2022/10/18 02:02:19;;;;;;;11.30;10.20;;;;;;;;;;5076596;28;20443;-53
2022/10/18 02:04:51;;;;;;;10.80;9.70;;;;;;;;;;5094323;28;20447;-55
2022/10/18 02:07:23;;;;;;;15.23;11.10;;;;;;;;;;5094170;28;20446;-52
2022/10/18 02:09:55;;;;;;;16.00;10.67;;;;;;;;;;5094095;28;20457;-56
2022/10/18 02:12:23;;;;;;;12.60;10.27;;;;;;;;;;5094308;28;20499;-58
2022/10/18 02:14:50;;;;;;;12.27;11.10;;;;;;;;;;5094175;28;20448;-55
2022/10/18 02:17:17;;;;;;;13.73;11.53;;;;;;;;;;5094174;28;20474;-56
2022/10/18 02:19:46;;;;;;;13.63;12.10;;;;;;;;;;5093907;28;20968;-55
2022/10/18 02:22:15;;;;;;;12.67;11.30;;;;;;;;;;5093848;28;20450;-55
2022/10/18 02:24:43;;;;;;;12.57;11.10;;;;;;;;;;5094112;28;20477;-55
2022/10/18 02:27:10;;;;;;;11.75;10.65;;;;;;;;;;5093839;28;20461;-56
2022/10/18 02:29:37;;;;;;;12.30;11.30;;;;;;;;;;5093852;28;20195;-55
2022/10/18 02:32:06;;;;;;;12.37;11.33;;;;;;;;;;5093760;28;20188;-55
2022/10/18 02:34:37;;;;;;;12.77;11.47;;;;;;;;;;5093657;28;20886;-56
2022/10/18 02:37:05;;;;;;;11.60;10.60;;;;;;;;;;5093481;28;20504;-55
2022/10/18 02:39:35;;;;;;;12.83;10.40;;;;;;;;;;5093751;28;20864;-56
2022/10/18 02:42:05;;;;;;;11.07;10.07;;;;;;;;;;5093627;28;20472;-56
2022/10/18 02:44:32;;;;;;;11.33;10.20;;;;;;;;;;5093650;28;20192;-56
2022/10/18 02:46:59;;;;;;;12.77;10.17;;;;;;;;;;5093515;28;20473;-57
2022/10/18 02:49:26;;;;;;;11.23;10.23;;;;;;;;;;5093368;28;20450;-56
2022/10/18 02:51:53;;;;;;;12.03;10.80;;;;;;;;;;5093524;28;20453;-57
2022/10/18 02:54:20;;;;;;;11.00;10.10;;;;;;;;;;5092948;28;20446;-54
2022/10/18 02:56:48;;;;;;;13.37;9.90;;;;;;;;;;5092988;28;21011;-56
2022/10/18 02:59:15;;;;;;;10.43;9.53;;;;;;;;;;5093317;28;20537;-56
2022/10/18 03:01:42;;;;;;;10.70;9.67;;;;;;;;;;5093153;28;20949;-56
2022/10/18 03:04:09;;;;;;;17.17;12.30;;;;;;;;;;5093425;28;20500;-54
2022/10/18 03:06:36;;;;;;;13.87;10.43;;;;;;;;;;5093106;28;20678;-55
2022/10/18 03:09:02;;;;;;;12.87;10.30;;;;;;;;;;5093270;28;20486;-54
2022/10/18 03:11:29;;;;;;;11.20;10.10;;;;;;;;;;5093199;28;20616;-52
2022/10/18 03:13:58;;;;;;;11.40;10.30;;;;;;;;;;5093035;28;21020;-56
2022/10/18 03:16:26;;;;;;;12.87;11.57;;;;;;;;;;5092906;28;20478;-54
2022/10/18 03:18:52;;;;;;;14.07;11.93;;;;;;;;;;5093238;28;20891;-56
2022/10/18 03:21:19;;;;;;;10.60;9.60;;;;;;;;;;5093190;28;20530;-54
2022/10/18 03:23:46;;;;;;;12.20;11.17;;;;;;;;;;5093229;28;20453;-54
2022/10/18 03:26:13;;;;;;;11.77;10.67;;;;;;;;;;5093197;28;20453;-55
2022/10/18 03:28:40;;;;;;;14.23;11.30;;;;;;;;;;5092951;28;20818;-55
2022/10/18 03:31:08;;;;;;;12.20;11.00;;;;;;;;;;5092892;28;20541;-54
2022/10/18 03:33:35;;;;;;;12.00;10.83;;;;;;;;;;5093089;28;20780;-56
2022/10/18 03:36:02;;;;;;;13.17;11.93;;;;;;;;;;5092863;28;20843;-56
2022/10/18 03:38:29;;;;;;;13.77;11.87;;;;;;;;;;5092990;28;20541;-56
2022/10/18 03:40:56;;;;;;;15.33;13.83;;;;;;;;;;5092849;28;20534;-56
2022/10/18 03:43:23;;;;;;;13.77;12.50;;;;;;;;;;5092802;28;20544;-56
2022/10/18 03:45:50;;;;;;;12.80;11.57;;;;;;;;;;5092989;28;20286;-54
2022/10/18 03:48:19;;;;;;;12.73;11.53;;;;;;;;;;5092824;28;20566;-56
2022/10/18 03:50:46;;;;;;;11.97;10.87;;;;;;;;;;5092908;28;20443;-56
2022/10/18 03:53:13;;;;;;;13.07;11.70;;;;;;;;;;5092837;28;20886;-55
2022/10/18 03:55:40;;;;;;;12.10;11.10;;;;;;;;;;5092731;28;20950;-55
2022/10/18 03:58:06;;;;;;;13.33;11.93;;;;;;;;;;5092645;28;20535;-56
2022/10/18 04:00:34;;;;;;;12.80;11.20;;;;;;;;;;5093066;28;20461;-56
2022/10/18 04:03:00;;;;;;;16.38;13.00;;;;;;;;;;5092741;28;20899;-54
2022/10/18 04:05:30;;;;;;;12.57;11.50;;;;;;;;;;5092879;28;20195;-55
2022/10/18 04:07:56;;;;;;;12.00;10.90;;;;;;;;;;5096408;28;20493;-56
2022/10/18 04:10:23;;;;;;;17.80;11.50;;;;;;;;;;5096365;28;20537;-57
2022/10/18 04:12:50;;;;;;;11.97;10.80;;;;;;;;;;5096436;28;20443;-55
2022/10/18 04:15:17;;;;;;;12.37;11.10;;;;;;;;;;5096430;28;20867;-55
2022/10/18 04:17:44;;;;;;;10.70;9.70;;;;;;;;;;5096361;28;21063;-55
2022/10/18 04:20:12;;;;;;;12.03;10.93;;;;;;;;;;5096361;28;20495;-54
2022/10/18 04:22:40;;;;;;;12.83;11.63;;;;;;;;;;5096125;28;20945;-56
2022/10/18 04:25:07;;;;;;;14.48;11.20;;;;;;;;;;5096090;28;20448;-55
2022/10/18 04:27:34;;;;;;;12.10;11.00;;;;;;;;;;5096192;28;20199;-56
2022/10/18 04:30:01;;;;;;;14.33;12.07;;;;;;;;;;5096146;28;20478;-55
2022/10/18 04:32:28;;;;;;;12.53;11.13;;;;;;;;;;5096069;28;20446;-54
2022/10/18 04:34:55;;;;;;;13.53;12.30;;;;;;;;;;5095794;28;20525;-54
2022/10/18 04:37:22;;;;;;;13.60;11.80;;;;;;;;;;5095785;28;20478;-55
2022/10/18 04:39:50;;;;;;;13.30;12.00;;;;;;;;;;5095843;28;20809;-55
2022/10/18 04:42:17;;;;;;;13.83;12.50;;;;;;;;;;5096325;28;20822;-55
2022/10/18 04:44:44;;;;;;;14.83;13.33;;;;;;;;;;5095517;28;20484;-56
2022/10/18 04:47:11;;;;;;;15.10;13.50;;;;;;;;;;5095575;28;20446;-56
2022/10/18 04:49:38;;;;;;;18.00;13.83;;;;;;;;;;5095685;28;20451;-56
2022/10/18 04:52:05;;;;;;;14.87;13.37;;;;;;;;;;5095603;28;20809;-56
2022/10/18 04:54:32;;;;;;;14.67;13.30;;;;;;;;;;5095440;28;20446;-56
2022/10/18 04:57:00;;;;;;;16.17;14.57;;;;;;;;;;5095546;28;20837;-55
2022/10/18 04:59:27;;;;;;;14.37;12.93;;;;;;;;;;5095586;28;20540;-56
2022/10/18 05:01:54;;;;;;;14.77;13.30;;;;;;;;;;5095424;28;20533;-54
2022/10/18 05:04:21;;;;;;;12.30;11.30;;;;;;;;;;5095347;28;20450;-55
2022/10/18 05:06:48;;;;;;;14.23;12.73;;;;;;;;;;5095260;28;20801;-56
2022/10/18 05:09:15;;;;;;;14.40;13.00;;;;;;;;;;5095476;28;20446;-55
2022/10/18 05:11:42;;;;;;;14.40;13.00;;;;;;;;;;5095377;28;20815;-56
2022/10/18 05:14:10;;;;;;;12.23;11.13;;;;;;;;;;5095381;28;20870;-56
2022/10/18 05:16:37;;;;;;;13.40;12.10;;;;;;;;;;5095117;28;20799;-56
2022/10/18 05:19:04;;;;;;;15.13;12.80;;;;;;;;;;5094054;28;20937;-55
2022/10/18 05:21:31;;;;;;;14.33;12.97;;;;;;;;;;5095036;28;20188;-54
2022/10/18 05:23:58;;;;;;;19.70;15.60;;;;;;;;;;5095273;28;20814;-57
2022/10/18 05:26:25;;;;;;;15.27;13.20;;;;;;;;;;5095080;28;20455;-56
2022/10/18 05:28:52;;;;;;;15.20;13.60;;;;;;;;;;5094938;28;20537;-55
2022/10/18 05:31:20;;;;;;;15.50;13.43;;;;;;;;;;5094919;28;20279;-55
2022/10/18 05:33:47;;;;;;;13.60;12.20;;;;;;;;;;5094509;28;20527;-56
2022/10/18 05:36:14;;;;;;;14.23;12.80;;;;;;;;;;5094678;28;20552;-55
2022/10/18 05:38:41;;;;;;;13.55;12.15;;;;;;;;;;5094803;28;20457;-56
2022/10/18 05:41:08;;;;;;;13.40;12.13;;;;;;;;;;5094782;28;20185;-55
2022/10/18 05:43:35;;;;;;;15.10;13.50;;;;;;;;;;5094619;28;20849;-55
2022/10/18 05:46:03;;;;;;;14.70;13.30;;;;;;;;;;5094564;28;20460;-57
2022/10/18 05:48:31;;;;;;;15.50;13.07;;;;;;;;;;5094433;28;20475;-54
2022/10/18 05:50:59;;;;;;;13.88;12.48;;;;;;;;;;5094636;28;20453;-56
2022/10/18 05:53:25;;;;;;;15.43;12.83;;;;;;;;;;5094492;28;20193;-55
2022/10/18 05:55:52;;;;;;;13.32;12.02;;;;;;;;;;5094475;28;20447;-58
2022/10/18 05:58:19;;;;;;;12.83;11.60;;;;;;;;;;5094245;28;20303;-55
2022/10/18 06:00:46;;;;;;;12.43;11.30;;;;;;;;;;5094150;28;20545;-55
2022/10/18 06:03:13;;;;;;;13.00;11.60;;;;;;;;;;5094326;28;20549;-54
2022/10/18 06:05:41;;;;;;;13.33;12.00;;;;;;;;;;5094240;28;20644;-55
2022/10/18 06:08:08;;;;;;;15.00;13.37;;;;;;;;;;5094237;28;20881;-54
2022/10/18 06:10:35;;;;;;;12.47;11.27;;;;;;;;;;5094107;28;20512;-53
2022/10/18 06:13:02;;;;;;;12.20;11.00;;;;;;;;;;5093962;28;20805;-55
2022/10/18 06:15:29;;;;;;;13.63;12.23;;;;;;;;;;5094064;28;20541;-55
2022/10/18 06:17:56;;;;;;;12.17;11.17;;;;;;;;;;5094036;28;20574;-54
2022/10/18 06:20:23;;;;;;;15.80;13.53;;;;;;;;;;5094285;28;20446;-53
2022/10/18 06:22:53;;;;;;;14.20;12.90;;;;;;;;;;5093986;28;20533;-54
2022/10/18 06:25:20;;;;;;;13.57;12.00;;;;;;;;;;5093869;28;20550;-55
2022/10/18 06:27:47;;;;;;;13.30;12.00;;;;;;;;;;5093756;28;20442;-55
2022/10/18 06:30:14;;;;;;;14.50;13.10;;;;;;;;;;5093492;28;20286;-55
2022/10/18 06:32:41;;;;;;;15.83;13.63;;;;;;;;;;5093811;28;20832;-55
2022/10/18 06:35:08;;;;;;;12.77;11.57;;;;;;;;;;5093724;28;20541;-53
2022/10/18 06:37:36;;;;;;;14.33;12.90;;;;;;;;;;5093539;28;20478;-49
2022/10/18 06:40:05;;;;;;;14.33;12.93;;;;;;;;;;5093461;28;20454;-50
2022/10/18 06:42:32;;;;;;;13.73;12.43;;;;;;;;;;5093372;28;20960;-53
2022/10/18 06:45:00;;;;;;;14.37;12.90;;;;;;;;;;5093496;28;21570;-53
2022/10/18 06:47:27;;;;;;;14.60;13.20;;;;;;;;;;5093391;28;20977;-55
2022/10/18 06:49:54;;;;;;;13.73;11.50;;;;;;;;;;5093497;28;20450;-52
2022/10/18 06:52:24;;;;;;;12.85;11.60;;;;;;;;;;5093421;28;20542;-55
2022/10/18 06:54:51;;;;;;;16.60;12.97;;;;;;;;;;5093308;28;20694;-55
2022/10/18 06:57:20;;;;;;;14.23;12.60;;;;;;;;;;5093037;28;20505;-55
2022/10/18 06:59:48;;;;;;;14.33;12.93;;;;;;;;;;5093445;28;20192;-55
2022/10/18 07:02:16;;;;;;;12.20;11.00;;;;;;;;;;5093283;28;20540;-51
2022/10/18 07:04:43;;;;;;;13.95;12.63;;;;;;;;;;5093176;28;20925;-55
2022/10/18 07:07:10;;;;;;;12.33;11.20;;;;;;;;;;5093149;28;20283;-56
2022/10/18 07:09:37;;;;;;;16.73;14.33;;;;;;;;;;5092995;28;20852;-56
2022/10/18 07:12:04;;;;;;;14.35;12.95;;;;;;;;;;5093193;28;20455;-55
2022/10/18 07:14:33;;;;;;;14.13;12.60;;;;;;;;;;5093114;28;20188;-50
2022/10/18 07:17:00;;;;;;;15.77;14.23;;;;;;;;;;5092911;28;20466;-52
2022/10/18 07:19:27;;;;;;;15.67;14.27;;;;;;;;;;5093183;28;20541;-55
2022/10/18 07:21:54;;;;;;;12.73;11.40;;;;;;;;;;5092967;28;20521;-54
2022/10/18 07:24:21;;;;;;;14.88;13.50;;;;;;;;;;5092839;28;20454;-55
2022/10/18 07:26:48;;;;;;;13.93;12.53;;;;;;;;;;5092948;28;20188;-54
2022/10/18 07:29:15;;;;;;;13.97;12.53;;;;;;;;;;5093069;28;21025;-55
2022/10/18 07:31:43;;;;;;;15.63;13.70;;;;;;;;;;5092986;28;20997;-56
2022/10/18 07:34:12;;;;;;;14.37;12.97;;;;;;;;;;5093060;28;20451;-53
2022/10/18 07:36:38;;;;;;;14.43;13.03;;;;;;;;;;5092643;28;20537;-55
2022/10/18 07:39:06;;;;;;;13.07;11.70;;;;;;;;;;5093032;28;20541;-54
2022/10/18 07:41:33;;;;;;;13.97;12.77;;;;;;;;;;5094439;28;20537;-55
2022/10/18 07:44:00;;;;;;;13.03;11.83;;;;;;;;;;5097050;28;20438;-56
2022/10/18 07:46:27;;;;;;;13.40;12.20;;;;;;;;;;5097081;28;20449;-52
2022/10/18 07:48:57;;;;;;;17.20;14.27;;;;;;;;;;5096675;28;20601;-54
2022/10/18 07:51:24;;;;;;;11.90;10.90;;;;;;;;;;5096696;28;20478;-53
2022/10/18 07:53:51;;;;;;;13.87;12.57;;;;;;;;;;5096875;28;20457;-52
2022/10/18 07:56:19;;;;;;;13.60;12.40;;;;;;;;;;5096823;28;20485;-49
2022/10/18 07:58:47;;;;;;;12.45;11.13;;;;;;;;;;5096883;28;20487;-54
2022/10/18 08:01:14;;;;;;;15.33;13.77;;;;;;;;;;5096605;28;20227;-55
2022/10/18 08:03:42;;;;;;;12.90;11.50;;;;;;;;;;5096569;28;20809;-55
2022/10/18 08:06:11;;;;;;;16.83;13.40;;;;;;;;;;5096594;28;20539;-54
2022/10/18 08:08:39;;;;;;;16.40;13.30;;;;;;;;;;5096638;28;20541;-56
2022/10/18 08:11:07;;;;;;;14.07;12.70;;;;;;;;;;5096680;28;20994;-55
2022/10/18 08:13:34;;;;;;;11.65;10.60;;;;;;;;;;5096371;28;20533;-53
2022/10/18 08:16:02;;;;;;;14.90;11.70;;;;;;;;;;5096327;28;20282;-53
2022/10/18 08:18:29;;;;;;;12.32;11.02;;;;;;;;;;5096116;28;20212;-54
2022/10/18 08:20:56;;;;;;;14.93;10.65;;;;;;;;;;5096516;28;20185;-55
2022/10/18 08:23:24;;;;;;;13.40;12.20;;;;;;;;;;5096211;28;20276;-55
2022/10/18 08:25:51;;;;;;;13.13;11.90;;;;;;;;;;5096232;28;20897;-55
2022/10/18 08:28:18;;;;;;;16.40;13.03;;;;;;;;;;5096068;28;20449;-55
2022/10/18 08:30:45;;;;;;;18.17;12.53;;;;;;;;;;5096136;28;20846;-54
2022/10/18 08:33:12;;;;;;;18.90;13.13;;;;;;;;;;5096095;28;20460;-55
2022/10/18 08:35:39;;;;;;;16.83;11.90;;;;;;;;;;5096122;28;20859;-55
2022/10/18 08:38:10;;;;;;;14.03;12.63;;;;;;;;;;5095980;28;20562;-56
2022/10/18 08:40:42;;;;;;;13.37;12.20;;;;;;;;;;5095955;28;20537;-55
2022/10/18 08:43:11;;;;;;;14.73;12.63;;;;;;;;;;5096163;28;20457;-55
2022/10/18 08:45:40;;;;;;;16.00;14.50;;;;;;;;;;5095743;28;20446;-56
2022/10/18 08:48:08;;;;;;;14.87;13.20;;;;;;;;;;5095628;28;20228;-55
2022/10/18 08:50:37;;;;;;;12.20;11.10;;;;;;;;;;5096066;28;20446;-55
2022/10/18 08:53:06;;;;;;;12.90;11.67;;;;;;;;;;5095524;28;20454;-56
2022/10/18 08:55:37;;;;;;;14.20;11.83;;;;;;;;;;5095506;28;20454;-56
2022/10/18 08:58:13;;;;;;;13.10;11.17;;;;;;;;;;5095456;28;20506;-56
2022/10/18 09:00:42;;;;;;;11.50;10.40;;;;;;;;;;5095687;28;20447;-54
2022/10/18 09:03:18;;;;;;;11.40;10.30;;;;;;;;;;5095499;28;20446;-55
2022/10/18 09:05:47;;;;;;;9.80;8.97;;;;;;;;;;5095408;28;20541;-56
2022/10/18 09:08:19;;;;;;;9.70;8.60;;;;;;;;;;5095350;28;20541;-56
2022/10/18 09:10:53;;;;;;;10.98;9.60;;;;;;;;;;5095198;28;20452;-56
2022/10/18 09:13:31;;;;;;;8.77;8.00;;;;;;;;;;5095418;28;20283;-56
2022/10/18 09:16:00;;;;;;;11.33;8.43;;;;;;;;;;5095271;28;20446;-56
2022/10/18 09:18:37;;;;;;;11.57;9.53;;;;;;;;;;5095096;28;20578;-57
2022/10/18 09:21:08;;;;;;;10.20;9.20;;;;;;;;;;5095077;28;20457;-55
2022/10/18 09:23:42;;;;;;;12.70;11.43;;;;;;;;;;5095224;28;20537;-56
2022/10/18 09:26:11;;;;;;;13.03;9.50;;;;;;;;;;5095308;28;20450;-56
2022/10/18 09:28:44;;;;;;;11.57;9.60;;;;;;;;;;5094874;28;20537;-56
2022/10/18 09:31:14;;;;;;;9.00;8.20;;;;;;;;;;5095150;28;20984;-55
2022/10/18 09:33:45;;;;;;;9.43;8.47;;;;;;;;;;5095060;28;20537;-56
2022/10/18 09:36:17;;;;;;;10.53;8.87;;;;;;;;;;5095035;28;20481;-56
2022/10/18 09:38:45;;;;;;;11.60;8.87;;;;;;;;;;5095011;28;20573;-55
2022/10/18 09:41:15;;;;;;;9.87;8.03;;;;;;;;;;5094768;28;20446;-52
2022/10/18 09:43:48;;;;;;;8.27;6.83;;;;;;;;;;5094616;28;20542;-55
2022/10/18 09:46:16;;;;;;;8.13;7.40;;;;;;;;;;5094812;28;20449;-53
2022/10/18 09:48:45;;;;;;;9.40;7.20;;;;;;;;;;5094368;28;20476;-56
2022/10/18 09:51:16;;;;;;;7.17;6.47;;;;;;;;;;5094575;28;20445;-56
2022/10/18 09:53:44;;;;;;;7.00;6.30;;;;;;;;;;5094368;28;20934;-52
2022/10/18 09:56:12;;;;;;;7.20;6.60;;;;;;;;;;5094270;28;20533;-55
2022/10/18 09:58:44;;;;;;;6.73;5.27;;;;;;;;;;5094225;28;20803;-53
2022/10/18 10:01:14;;;;;;;7.30;6.27;;;;;;;;;;5094437;28;20792;-56
2022/10/18 10:03:42;;;;;;;5.80;5.20;;;;;;;;;;5093945;28;20537;-56
2022/10/18 10:06:16;;;;;;;10.50;6.27;;;;;;;;;;5094063;28;20454;-54
2022/10/18 10:08:44;;;;;;;6.27;5.63;;;;;;;;;;5094104;28;20447;-58
2022/10/18 10:11:25;;;;;;;6.77;6.10;;;;;;;;;;5094345;28;20444;-55
2022/10/18 10:13:52;;;;;;;8.60;4.60;;;;;;;;;;5094539;28;20446;-54
2022/10/18 10:16:21;;;;;;;6.73;5.57;;;;;;;;;;5094076;28;20443;-56
2022/10/18 10:18:53;;;;;;;6.88;5.35;;;;;;;;;;5094090;28;20537;-56
2022/10/18 10:21:21;;;;;;;6.60;6.00;;;;;;;;;;5093913;28;20184;-54
2022/10/18 10:23:51;;;;;;;5.77;5.37;;;;;;;;;;5094070;28;20537;-53
2022/10/18 10:26:23;;;;;;;6.20;5.60;;;;;;;;;;5094005;28;20542;-55
2022/10/18 10:28:50;;;;;;;7.03;5.77;;;;;;;;;;5093895;28;20538;-54
2022/10/18 10:31:18;;;;;;;6.87;5.90;;;;;;;;;;5094051;28;20453;-53
2022/10/18 10:33:47;;;;;;;7.97;6.77;;;;;;;;;;5093698;28;20446;-53
2022/10/18 10:36:17;;;;;;;8.60;5.90;;;;;;;;;;5093541;28;20905;-51
2022/10/18 10:38:44;;;;;;;5.90;5.40;;;;;;;;;;5093689;28;20565;-54
2022/10/18 10:41:18;;;;;;;6.10;5.50;;;;;;;;;;5093784;28;20531;-54
2022/10/18 10:43:45;;;;;;;4.50;4.20;;;;;;;;;;5093625;28;20585;-55
2022/10/18 10:46:13;;;;;;;6.68;5.20;;;;;;;;;;5093382;28;20287;-54
2022/10/18 10:48:42;;;;;;;4.87;4.40;;;;;;;;;;5093270;28;20252;-54
2022/10/18 10:51:11;;;;;;;15.40;12.90;;;;;;;;;;5093649;28;20541;-54
2022/10/18 10:53:40;;;;;;;5.17;4.67;;;;;;;;;;5093554;28;20562;-54
2022/10/18 10:56:14;;;;;;;4.27;3.97;;;;;;;;;;5093445;28;20545;-54
2022/10/18 10:58:41;;;;;;;4.40;4.00;;;;;;;;;;5093293;28;20486;-55
2022/10/18 11:01:32;;;;;;;4.73;4.33;;;;;;;;;;5093281;28;20542;-56
2022/10/18 11:04:00;;;;;;;5.13;4.67;;;;;;;;;;5073378;28;20519;-56
2022/10/18 11:06:45;;;;;;;7.13;6.50;;;;;;;;;;5093260;28;20442;-55
2022/10/18 11:09:18;;;;;;;8.47;5.03;;;;;;;;;;5093220;28;20889;-55
2022/10/18 11:11:52;;;;;;;6.00;4.50;;;;;;;;;;5093320;28;20446;-59
2022/10/18 11:14:23;;;;;;;7.65;4.80;;;;;;;;;;5091351;28;20453;-57
2022/10/18 11:16:55;;;;;;;4.73;4.27;;;;;;;;;;5091907;28;20189;-59
2022/10/18 11:19:29;;;;;;;4.57;4.10;;;;;;;;;;5092905;28;20483;-59
2022/10/18 11:21:57;;;;;;;4.33;3.93;;;;;;;;;;5092599;28;20446;-58
2022/10/18 11:24:26;;;;;;;4.10;3.80;;;;;;;;;;5092712;28;20977;-59
2022/10/18 11:26:57;;;;;;;5.67;4.07;;;;;;;;;;5092591;28;20810;-56
2022/10/18 11:29:34;;;;;;;5.30;4.40;;;;;;;;;;5092843;28;20450;-58
2022/10/18 11:32:06;;;;;;;4.67;3.73;;;;;;;;;;5093176;28;20274;-58
2022/10/18 11:34:42;;;;;;;3.30;3.00;;;;;;;;;;5092941;28;20442;-60
2022/10/18 11:37:13;;;;;;;4.00;3.80;;;;;;;;;;5092992;28;20896;-64
2022/10/18 11:39:47;;;;;;;5.33;4.93;;;;;;;;;;5092691;28;20811;-64
2022/10/18 11:42:19;;;;;;;6.73;5.03;;;;;;;;;;5092784;28;21001;-61
2022/10/18 11:44:51;;;;;;;5.70;5.20;;;;;;;;;;5092669;28;21025;-61
2022/10/18 11:47:21;;;;;;;6.20;4.60;;;;;;;;;;5079832;28;20558;-59
2022/10/18 11:49:54;;;;;;;6.13;5.63;;;;;;;;;;5072346;28;20459;-60
2022/10/18 11:52:25;;;;;;;7.80;5.47;;;;;;;;;;5072642;28;20447;-60
2022/10/18 11:55:04;;;;;;;4.80;4.50;;;;;;;;;;5072499;28;20501;-61
2022/10/18 11:57:43;;;;;;;5.97;5.07;;;;;;;;;;5072559;28;20538;-58
2022/10/18 12:00:17;;;;;;;5.60;5.10;;;;;;;;;;5071992;28;20483;-59
2022/10/18 12:02:55;;;;;;;5.10;4.67;;;;;;;;;;5072454;28;20211;-60
2022/10/18 12:05:22;;;;;;;4.80;4.40;;;;;;;;;;5072304;28;20460;-60
2022/10/18 12:07:52;;;;;;;5.47;5.03;;;;;;;;;;5072043;28;20887;-60
2022/10/18 12:10:21;;;;;;;5.37;4.70;;;;;;;;;;5072473;28;20553;-58
2022/10/18 12:12:50;;;;;;;5.23;4.80;;;;;;;;;;5071954;28;20530;-59
2022/10/18 12:15:19;;;;;;;6.47;5.50;;;;;;;;;;5072424;28;20449;-58
2022/10/18 12:17:47;;;;;;;6.32;5.72;;;;;;;;;;5072223;28;20447;-59
2022/10/18 12:20:16;;;;;;;6.37;5.93;;;;;;;;;;5072023;28;20235;-60
2022/10/18 12:22:46;;;;;;;6.00;5.60;;;;;;;;;;5072294;28;20494;-59
2022/10/18 12:25:13;;;;;;;5.07;4.67;;;;;;;;;;5072012;28;20812;-60
2022/10/18 12:27:45;;;;;;;5.43;4.93;;;;;;;;;;5073519;28;20479;-56
2022/10/18 12:30:18;;;;;;;5.57;5.17;;;;;;;;;;5075850;28;20550;-57
2022/10/18 12:32:45;;;;;;;6.30;5.80;;;;;;;;;;5075605;28;20486;-59
2022/10/18 12:35:15;;;;;;;12.30;11.20;;;;;;;;;;5075577;28;20189;-59
2022/10/18 12:37:56;;;;;;;7.70;7.10;;;;;;;;;;5075691;28;20970;-58
2022/10/18 12:40:25;;;;;;;6.67;6.07;;;;;;;;;;5078022;28;20470;-58
2022/10/18 12:42:53;;;;;;;5.77;5.37;;;;;;;;;;5077949;28;20530;-61
2022/10/18 12:45:24;;;;;;;6.13;5.73;;;;;;;;;;5080112;28;20444;-61
2022/10/18 12:47:51;;;;;;;6.13;5.73;;;;;;;;;;5095671;28;21011;-56
2022/10/18 12:50:27;;;;;;;7.10;6.40;;;;;;;;;;5096044;28;20495;-54
2022/10/18 12:53:01;;;;;;;6.50;6.00;;;;;;;;;;5095635;28;20450;-61
2022/10/18 12:55:36;;;;;;;7.73;7.13;;;;;;;;;;5084199;28;20484;-58
2022/10/18 12:58:22;;;;;;;6.60;6.20;;;;;;;;;;5075328;28;20451;-56
2022/10/18 13:00:53;;;;;;;6.87;6.37;;;;;;;;;;5075338;28;20459;-57
2022/10/18 13:03:37;;;;;;;6.97;6.37;;;;;;;;;;5074791;28;20448;-59
2022/10/18 13:06:04;;;;;;;7.00;6.50;;;;;;;;;;5074908;28;20462;-59
2022/10/18 13:08:41;;;;;;;7.30;6.50;;;;;;;;;;5074764;28;20818;-62
2022/10/18 13:11:26;;;;;;;7.80;7.10;;;;;;;;;;5075042;28;20460;-59
2022/10/18 13:13:59;;;;;;;6.97;6.27;;;;;;;;;;5074621;28;20443;-60
2022/10/18 13:16:32;;;;;;;6.63;6.10;;;;;;;;;;5074321;28;20439;-59
2022/10/18 13:19:02;;;;;;;5.93;5.53;;;;;;;;;;5074929;28;20555;-60
2022/10/18 13:21:35;;;;;;;7.00;6.30;;;;;;;;;;5074419;28;21006;-61
2022/10/18 13:24:06;;;;;;;6.50;6.00;;;;;;;;;;5074744;28;20451;-61
2022/10/18 13:26:40;;;;;;;6.17;5.73;;;;;;;;;;5074893;28;20457;-61
2022/10/18 13:29:18;;;;;;;6.47;5.87;;;;;;;;;;5074549;28;20798;-61
2022/10/18 13:31:47;;;;;;;6.20;5.70;;;;;;;;;;5074907;28;20443;-61
2022/10/18 13:34:19;;;;;;;7.55;7.05;;;;;;;;;;5074648;28;20444;-61
2022/10/18 13:36:55;;;;;;;6.40;5.90;;;;;;;;;;5074274;28;20189;-61
2022/10/18 13:39:22;;;;;;;5.83;5.37;;;;;;;;;;5073537;28;20511;-61
2022/10/18 13:42:04;;;;;;;5.83;5.33;;;;;;;;;;5074767;28;20538;-61
2022/10/18 13:44:36;;;;;;;6.00;5.60;;;;;;;;;;5073800;28;20443;-61
2022/10/18 13:47:12;;;;;;;5.97;5.57;;;;;;;;;;5074120;28;20439;-61
2022/10/18 13:49:46;;;;;;;5.80;5.20;;;;;;;;;;5074597;28;20543;-61
2022/10/18 13:52:19;;;;;;;5.63;5.33;;;;;;;;;;5074242;28;20505;-60
2022/10/18 13:54:53;;;;;;;5.47;4.90;;;;;;;;;;5074259;28;20807;-61
2022/10/18 13:57:25;;;;;;;5.50;5.13;;;;;;;;;;5074030;28;20469;-61
2022/10/18 14:00:03;;;;;;;5.07;4.67;;;;;;;;;;5074218;28;20490;-61
2022/10/18 14:02:42;;;;;;;6.97;6.37;;;;;;;;;;5073968;28;20540;-61
2022/10/18 14:05:15;;;;;;;7.10;6.50;;;;;;;;;;5074100;28;20482;-61
2022/10/18 14:07:43;;;;;;;6.30;5.77;;;;;;;;;;5074002;28;20447;-61
2022/10/18 14:10:11;;;;;;;6.63;6.23;;;;;;;;;;5073864;28;20443;-61
2022/10/18 14:12:40;;;;;;;5.70;5.40;;;;;;;;;;5073736;28;20939;-61
2022/10/18 14:15:15;;;;;;;7.23;6.70;;;;;;;;;;5073953;28;20454;-61
2022/10/18 14:17:45;;;;;;;5.97;5.27;;;;;;;;;;5073797;28;20450;-61
2022/10/18 14:20:21;;;;;;;5.87;5.27;;;;;;;;;;5073732;28;20483;-61
2022/10/18 14:22:50;;;;;;;6.27;5.83;;;;;;;;;;5073659;28;20454;-61
2022/10/18 14:25:21;;;;;;;6.30;5.90;;;;;;;;;;5073718;28;20547;-61
2022/10/18 14:27:48;;;;;;;6.43;5.83;;;;;;;;;;5073657;28;20447;-61
2022/10/18 14:30:18;;;;;;;7.13;6.53;;;;;;;;;;5073695;28;20497;-61
2022/10/18 14:32:46;;;;;;;6.57;6.00;;;;;;;;;;5073490;28;20861;-61
2022/10/18 14:35:17;;;;;;;7.07;6.47;;;;;;;;;;5073412;28;20455;-60
2022/10/18 14:37:44;;;;;;;6.47;5.97;;;;;;;;;;5073186;28;20475;-61